Williamsport, PA (17701)

6:45 AM EST on February 06, 2016 (GMT -0500)
Grampian Hills | | Change Station
CLOSE
Current Station
Personal Weather Station
Location: Williamsport, PA
Elevation: 876 ft
Nearby Weather Stations

Elev 876 ft 41.26 °N, 77.00 °W | Updated 28 seconds ago

Clear
Clear
22.6 °F
Feels Like 23 °F
N
0.0
Wind Variable Wind from North
Gusts 0.0 mph

Today
High -- | Low -- °F
--% Chance of Precip.
Yesterday
High -- | Low -- °F
Precip. -- in
Pressure 30.38 in
Visibility 10.0 miles
Clouds Clear
Windchill 23 °F
Dew Point 16 °F
Humidity 74%
Rainfall 0.00 in
Snow Depth Not available.
7:14 AM 5:30 PM
Waning Crescent, 6% visible
METAR KIPT 061054Z AUTO 07003KT 10SM CLR M05/M08 A3035 RMK AO2 SLP286 T10501083 TSNO $
Pressure 30.38 in
Visibility 10.0 miles
Clouds Clear
Windchill 23 °F
Dew Point 16 °F
Humidity 74%
Rainfall 0.00 in
Snow Depth Not available.
7:14 AM 5:30 PM
Waning Crescent, 6% visible
METAR KIPT 061054Z AUTO 07003KT 10SM CLR M05/M08 A3035 RMK AO2 SLP286 T10501083 TSNO $

10-Day Weather Forecast

Almanac

Astronomy

Feb. 06, 2016 Rise Set
Actual Time
Civil Twilight
Nautical Twilight
Astronomical Twilight
Moon
Length of Visible Light
Length of Day
Tomorrow will be .
, % of the Moon is Illuminated

Today's Extremes

State Highs State Lows

Community

WunderPhotos

Upload Photos

1,890,944 photos uploaded!

WunderBlog® & News

Nearby

Air Quality

  Air Quality AQ Index Pollutant
Not available.

Snow Depth

Station Depth Elevation

Earthquake Activity

City Distance Mag. Time & Date
Minimum magnitude displayed is 2.5.

Coastal Water Temperatures

Place Temperature

Stations

Nearby Weather Stations

Station Location Temp. Windchill Dew Point Humidity Wind Precip. Elev Updated Type
                   

Watches & Warnings

There are currently no watches in effect.